sensor_id;sensor_type;location;lat;lon;timestamp;temperature;humidity
22145;DHT22;11238;48.730;11.566;2023-02-18T00:00:26;11.00;99.90
22145;DHT22;11238;48.730;11.566;2023-02-18T00:02:52;11.00;99.90
22145;DHT22;11238;48.730;11.566;2023-02-18T00:05:21;11.00;99.90
22145;DHT22;11238;48.730;11.566;2023-02-18T00:07:46;10.90;99.90
22145;DHT22;11238;48.730;11.566;2023-02-18T00:10:14;10.90;99.90
22145;DHT22;11238;48.730;11.566;2023-02-18T00:12:40;10.80;99.90
22145;DHT22;11238;48.730;11.566;2023-02-18T00:15:07;10.90;99.90
22145;DHT22;11238;48.730;11.566;2023-02-18T00:17:34;10.80;99.90
22145;DHT22;11238;48.730;11.566;2023-02-18T00:20:00;10.80;99.90
22145;DHT22;11238;48.730;11.566;2023-02-18T00:22:25;10.90;99.90
22145;DHT22;11238;48.730;11.566;2023-02-18T00:24:51;10.80;99.90
22145;DHT22;11238;48.730;11.566;2023-02-18T00:27:17;10.80;99.90
22145;DHT22;11238;48.730;11.566;2023-02-18T00:29:43;10.80;99.90
22145;DHT22;11238;48.730;11.566;2023-02-18T00:32:09;10.80;99.90
22145;DHT22;11238;48.730;11.566;2023-02-18T00:34:35;10.80;99.90
22145;DHT22;11238;48.730;11.566;2023-02-18T00:37:02;10.80;99.90
22145;DHT22;11238;48.730;11.566;2023-02-18T00:39:28;10.90;99.90
22145;DHT22;11238;48.730;11.566;2023-02-18T00:41:55;10.80;99.90
22145;DHT22;11238;48.730;11.566;2023-02-18T00:44:21;10.90;99.90
22145;DHT22;11238;48.730;11.566;2023-02-18T00:46:47;10.90;99.90
22145;DHT22;11238;48.730;11.566;2023-02-18T00:49:14;10.90;99.90
22145;DHT22;11238;48.730;11.566;2023-02-18T00:51:40;10.90;99.90
22145;DHT22;11238;48.730;11.566;2023-02-18T00:54:07;10.90;99.90
22145;DHT22;11238;48.730;11.566;2023-02-18T00:56:33;10.80;99.90
22145;DHT22;11238;48.730;11.566;2023-02-18T00:58:59;10.90;99.90
22145;DHT22;11238;48.730;11.566;2023-02-18T01:01:26;10.90;99.90
22145;DHT22;11238;48.730;11.566;2023-02-18T01:03:52;10.90;99.90
22145;DHT22;11238;48.730;11.566;2023-02-18T01:06:18;10.90;99.90
22145;DHT22;11238;48.730;11.566;2023-02-18T01:08:47;10.90;99.90
22145;DHT22;11238;48.730;11.566;2023-02-18T01:11:14;10.90;99.90
22145;DHT22;11238;48.730;11.566;2023-02-18T01:13:41;11.00;99.90
22145;DHT22;11238;48.730;11.566;2023-02-18T01:16:08;11.00;99.90
22145;DHT22;11238;48.730;11.566;2023-02-18T01:18:34;11.10;99.90
22145;DHT22;11238;48.730;11.566;2023-02-18T01:21:02;11.10;99.90
22145;DHT22;11238;48.730;11.566;2023-02-18T01:23:30;11.10;99.90
22145;DHT22;11238;48.730;11.566;2023-02-18T01:25:57;11.10;99.90
22145;DHT22;11238;48.730;11.566;2023-02-18T01:28:23;11.10;99.90
22145;DHT22;11238;48.730;11.566;2023-02-18T01:30:50;11.10;99.90
22145;DHT22;11238;48.730;11.566;2023-02-18T01:33:18;11.10;99.90
22145;DHT22;11238;48.730;11.566;2023-02-18T01:35:44;11.10;99.90
22145;DHT22;11238;48.730;11.566;2023-02-18T01:38:10;11.10;99.90
22145;DHT22;11238;48.730;11.566;2023-02-18T01:40:42;11.10;99.90
22145;DHT22;11238;48.730;11.566;2023-02-18T01:43:11;11.10;99.90
22145;DHT22;11238;48.730;11.566;2023-02-18T01:45:56;11.10;99.90
22145;DHT22;11238;48.730;11.566;2023-02-18T01:51:22;11.10;99.90
22145;DHT22;11238;48.730;11.566;2023-02-18T01:54:04;11.20;99.90
22145;DHT22;11238;48.730;11.566;2023-02-18T01:56:34;11.10;99.90
22145;DHT22;11238;48.730;11.566;2023-02-18T01:59:03;11.20;99.90
22145;DHT22;11238;48.730;11.566;2023-02-18T02:01:31;11.20;99.90
22145;DHT22;11238;48.730;11.566;2023-02-18T02:03:57;11.20;99.90
22145;DHT22;11238;48.730;11.566;2023-02-18T02:06:24;11.20;99.90
22145;DHT22;11238;48.730;11.566;2023-02-18T02:08:53;11.20;99.90
22145;DHT22;11238;48.730;11.566;2023-02-18T02:14:15;11.10;99.90
22145;DHT22;11238;48.730;11.566;2023-02-18T02:17:06;11.10;99.90
22145;DHT22;11238;48.730;11.566;2023-02-18T02:19:55;11.20;99.90
22145;DHT22;11238;48.730;11.566;2023-02-18T02:22:31;11.20;99.90
22145;DHT22;11238;48.730;11.566;2023-02-18T02:30:41;11.20;99.90
22145;DHT22;11238;48.730;11.566;2023-02-18T02:36:13;11.10;99.90
22145;DHT22;11238;48.730;11.566;2023-02-18T02:38:48;11.20;99.90
22145;DHT22;11238;48.730;11.566;2023-02-18T02:44:07;11.20;99.90
22145;DHT22;11238;48.730;11.566;2023-02-18T02:46:40;11.20;99.90
22145;DHT22;11238;48.730;11.566;2023-02-18T02:52:05;11.30;99.90
22145;DHT22;11238;48.730;11.566;2023-02-18T02:54:32;11.30;99.90
22145;DHT22;11238;48.730;11.566;2023-02-18T03:00:05;11.20;99.90
22145;DHT22;11238;48.730;11.566;2023-02-18T03:02:37;11.30;99.90
22145;DHT22;11238;48.730;11.566;2023-02-18T03:23:20;11.10;99.90
22145;DHT22;11238;48.730;11.566;2023-02-18T03:25:49;11.10;99.90
22145;DHT22;11238;48.730;11.566;2023-02-18T03:28:20;11.10;99.90
22145;DHT22;11238;48.730;11.566;2023-02-18T03:30:50;11.10;99.90
22145;DHT22;11238;48.730;11.566;2023-02-18T03:33:25;11.00;99.90
22145;DHT22;11238;48.730;11.566;2023-02-18T03:35:53;11.00;99.90
22145;DHT22;11238;48.730;11.566;2023-02-18T03:38:28;11.00;99.90
22145;DHT22;11238;48.730;11.566;2023-02-18T03:40:57;11.00;99.90
22145;DHT22;11238;48.730;11.566;2023-02-18T03:43:23;11.00;99.90
22145;DHT22;11238;48.730;11.566;2023-02-18T03:45:49;11.00;99.90
22145;DHT22;11238;48.730;11.566;2023-02-18T03:48:16;10.90;99.90
22145;DHT22;11238;48.730;11.566;2023-02-18T03:50:42;11.00;99.90
22145;DHT22;11238;48.730;11.566;2023-02-18T03:53:08;10.90;99.90
22145;DHT22;11238;48.730;11.566;2023-02-18T03:55:36;10.90;99.90
22145;DHT22;11238;48.730;11.566;2023-02-18T03:58:02;10.90;99.90
22145;DHT22;11238;48.730;11.566;2023-02-18T04:00:27;10.90;99.90
22145;DHT22;11238;48.730;11.566;2023-02-18T04:02:53;10.90;99.90
22145;DHT22;11238;48.730;11.566;2023-02-18T04:05:19;10.90;99.90
22145;DHT22;11238;48.730;11.566;2023-02-18T04:07:45;10.90;99.90
22145;DHT22;11238;48.730;11.566;2023-02-18T04:10:11;10.90;99.90
22145;DHT22;11238;48.730;11.566;2023-02-18T04:12:36;11.00;99.90
22145;DHT22;11238;48.730;11.566;2023-02-18T04:15:03;11.00;99.90
22145;DHT22;11238;48.730;11.566;2023-02-18T04:17:29;10.90;99.90
22145;DHT22;11238;48.730;11.566;2023-02-18T04:19:55;10.90;99.90
22145;DHT22;11238;48.730;11.566;2023-02-18T04:22:21;10.90;99.90
22145;DHT22;11238;48.730;11.566;2023-02-18T04:24:47;11.00;99.90
22145;DHT22;11238;48.730;11.566;2023-02-18T04:27:12;11.00;99.90
22145;DHT22;11238;48.730;11.566;2023-02-18T04:29:38;11.10;99.90
22145;DHT22;11238;48.730;11.566;2023-02-18T04:32:07;11.00;99.90
22145;DHT22;11238;48.730;11.566;2023-02-18T04:34:32;11.00;99.90
22145;DHT22;11238;48.730;11.566;2023-02-18T04:36:58;11.10;99.90
22145;DHT22;11238;48.730;11.566;2023-02-18T04:39:25;11.10;99.90
22145;DHT22;11238;48.730;11.566;2023-02-18T04:41:51;11.10;99.90
22145;DHT22;11238;48.730;11.566;2023-02-18T04:44:17;11.10;99.90
22145;DHT22;11238;48.730;11.566;2023-02-18T04:46:42;11.10;99.90
22145;DHT22;11238;48.730;11.566;2023-02-18T04:49:08;11.00;99.90
22145;DHT22;11238;48.730;11.566;2023-02-18T04:51:34;11.00;99.90
22145;DHT22;11238;48.730;11.566;2023-02-18T04:53:59;11.10;99.90
22145;DHT22;11238;48.730;11.566;2023-02-18T04:56:25;11.10;99.90
22145;DHT22;11238;48.730;11.566;2023-02-18T04:58:51;11.10;99.90
22145;DHT22;11238;48.730;11.566;2023-02-18T05:01:17;11.00;99.90
22145;DHT22;11238;48.730;11.566;2023-02-18T05:03:43;11.00;99.90
22145;DHT22;11238;48.730;11.566;2023-02-18T05:06:11;11.00;99.90
22145;DHT22;11238;48.730;11.566;2023-02-18T05:08:36;11.00;99.90
22145;DHT22;11238;48.730;11.566;2023-02-18T05:11:07;11.00;99.90
22145;DHT22;11238;48.730;11.566;2023-02-18T05:13:33;10.90;99.90
22145;DHT22;11238;48.730;11.566;2023-02-18T05:15:59;10.90;99.90
22145;DHT22;11238;48.730;11.566;2023-02-18T05:18:25;11.00;99.90
22145;DHT22;11238;48.730;11.566;2023-02-18T05:20:51;11.00;99.90
22145;DHT22;11238;48.730;11.566;2023-02-18T05:23:17;11.00;99.90
22145;DHT22;11238;48.730;11.566;2023-02-18T05:25:44;10.90;99.90
22145;DHT22;11238;48.730;11.566;2023-02-18T05:28:10;10.90;99.90
22145;DHT22;11238;48.730;11.566;2023-02-18T05:30:36;10.90;99.90
22145;DHT22;11238;48.730;11.566;2023-02-18T05:33:02;10.90;99.90
22145;DHT22;11238;48.730;11.566;2023-02-18T05:35:28;10.90;99.90
22145;DHT22;11238;48.730;11.566;2023-02-18T05:37:54;10.90;99.90
22145;DHT22;11238;48.730;11.566;2023-02-18T05:40:20;10.80;99.90
22145;DHT22;11238;48.730;11.566;2023-02-18T05:42:46;10.80;99.90
22145;DHT22;11238;48.730;11.566;2023-02-18T05:45:11;10.90;99.90
22145;DHT22;11238;48.730;11.566;2023-02-18T05:47:37;10.90;99.90
22145;DHT22;11238;48.730;11.566;2023-02-18T05:50:04;10.90;99.90
22145;DHT22;11238;48.730;11.566;2023-02-18T05:52:30;10.90;99.90
22145;DHT22;11238;48.730;11.566;2023-02-18T05:55:17;10.90;99.90
22145;DHT22;11238;48.730;11.566;2023-02-18T05:57:43;10.90;99.90
22145;DHT22;11238;48.730;11.566;2023-02-18T06:00:10;10.90;99.90
22145;DHT22;11238;48.730;11.566;2023-02-18T06:02:37;10.90;99.90
22145;DHT22;11238;48.730;11.566;2023-02-18T06:05:04;10.90;99.90
22145;DHT22;11238;48.730;11.566;2023-02-18T06:07:30;10.90;99.90
22145;DHT22;11238;48.730;11.566;2023-02-18T06:09:56;10.90;99.90
22145;DHT22;11238;48.730;11.566;2023-02-18T06:12:22;10.90;99.90
22145;DHT22;11238;48.730;11.566;2023-02-18T06:14:49;10.90;99.90
22145;DHT22;11238;48.730;11.566;2023-02-18T06:17:15;10.90;99.90
22145;DHT22;11238;48.730;11.566;2023-02-18T06:19:40;11.00;99.90
22145;DHT22;11238;48.730;11.566;2023-02-18T06:22:06;11.00;99.90
22145;DHT22;11238;48.730;11.566;2023-02-18T06:24:33;10.90;99.90
22145;DHT22;11238;48.730;11.566;2023-02-18T06:26:58;10.90;99.90
22145;DHT22;11238;48.730;11.566;2023-02-18T06:29:24;10.90;99.90
22145;DHT22;11238;48.730;11.566;2023-02-18T06:31:50;10.90;99.90
22145;DHT22;11238;48.730;11.566;2023-02-18T06:34:16;10.90;99.90
22145;DHT22;11238;48.730;11.566;2023-02-18T06:36:42;10.90;99.90
22145;DHT22;11238;48.730;11.566;2023-02-18T06:39:10;10.90;99.90
22145;DHT22;11238;48.730;11.566;2023-02-18T06:41:36;10.90;99.90
22145;DHT22;11238;48.730;11.566;2023-02-18T06:44:02;10.90;99.90
22145;DHT22;11238;48.730;11.566;2023-02-18T06:46:31;10.90;99.90
22145;DHT22;11238;48.730;11.566;2023-02-18T06:48:57;10.90;99.90
22145;DHT22;11238;48.730;11.566;2023-02-18T06:51:23;10.90;99.90
22145;DHT22;11238;48.730;11.566;2023-02-18T06:53:50;10.90;99.90
22145;DHT22;11238;48.730;11.566;2023-02-18T06:56:15;10.90;99.90
22145;DHT22;11238;48.730;11.566;2023-02-18T06:58:41;10.90;99.90
22145;DHT22;11238;48.730;11.566;2023-02-18T07:01:08;10.90;99.90
22145;DHT22;11238;48.730;11.566;2023-02-18T07:03:33;11.00;99.90
22145;DHT22;11238;48.730;11.566;2023-02-18T07:05:59;10.90;99.90
22145;DHT22;11238;48.730;11.566;2023-02-18T07:08:44;11.00;99.90
22145;DHT22;11238;48.730;11.566;2023-02-18T07:11:11;11.00;99.90
22145;DHT22;11238;48.730;11.566;2023-02-18T07:13:37;11.10;99.90
22145;DHT22;11238;48.730;11.566;2023-02-18T07:16:02;11.10;99.90
22145;DHT22;11238;48.730;11.566;2023-02-18T07:18:28;11.10;99.90
22145;DHT22;11238;48.730;11.566;2023-02-18T07:20:55;11.10;99.90
22145;DHT22;11238;48.730;11.566;2023-02-18T07:23:21;11.00;99.90
22145;DHT22;11238;48.730;11.566;2023-02-18T07:25:46;11.00;99.90
22145;DHT22;11238;48.730;11.566;2023-02-18T07:28:12;11.10;99.90
22145;DHT22;11238;48.730;11.566;2023-02-18T07:30:38;11.10;99.90
22145;DHT22;11238;48.730;11.566;2023-02-18T07:33:04;11.20;99.90
22145;DHT22;11238;48.730;11.566;2023-02-18T07:35:30;11.20;99.90
22145;DHT22;11238;48.730;11.566;2023-02-18T07:37:56;11.20;99.90
22145;DHT22;11238;48.730;11.566;2023-02-18T07:40:22;11.20;99.90
22145;DHT22;11238;48.730;11.566;2023-02-18T07:42:48;11.30;99.90
22145;DHT22;11238;48.730;11.566;2023-02-18T07:45:14;11.30;99.90
22145;DHT22;11238;48.730;11.566;2023-02-18T07:47:40;11.30;99.90
22145;DHT22;11238;48.730;11.566;2023-02-18T07:50:08;11.30;99.90
22145;DHT22;11238;48.730;11.566;2023-02-18T07:52:37;11.40;99.90
22145;DHT22;11238;48.730;11.566;2023-02-18T07:55:03;11.30;99.90
22145;DHT22;11238;48.730;11.566;2023-02-18T07:57:28;11.30;99.90
22145;DHT22;11238;48.730;11.566;2023-02-18T07:59:55;11.40;99.90
22145;DHT22;11238;48.730;11.566;2023-02-18T08:02:22;11.40;99.90
22145;DHT22;11238;48.730;11.566;2023-02-18T08:04:48;11.50;99.90
22145;DHT22;11238;48.730;11.566;2023-02-18T08:07:16;11.50;99.90
22145;DHT22;11238;48.730;11.566;2023-02-18T08:09:42;11.50;99.90
22145;DHT22;11238;48.730;11.566;2023-02-18T08:12:08;11.50;99.90
22145;DHT22;11238;48.730;11.566;2023-02-18T08:14:35;11.60;99.90
22145;DHT22;11238;48.730;11.566;2023-02-18T08:17:01;11.60;99.90
22145;DHT22;11238;48.730;11.566;2023-02-18T08:19:26;11.60;99.90
22145;DHT22;11238;48.730;11.566;2023-02-18T08:21:52;11.60;99.90
22145;DHT22;11238;48.730;11.566;2023-02-18T08:24:18;11.70;99.90
22145;DHT22;11238;48.730;11.566;2023-02-18T08:26:44;11.70;99.90
22145;DHT22;11238;48.730;11.566;2023-02-18T08:29:10;11.70;99.90
22145;DHT22;11238;48.730;11.566;2023-02-18T08:31:35;11.80;99.90
22145;DHT22;11238;48.730;11.566;2023-02-18T08:34:01;11.80;99.90
22145;DHT22;11238;48.730;11.566;2023-02-18T08:36:30;11.90;99.90
22145;DHT22;11238;48.730;11.566;2023-02-18T08:38:57;11.80;99.90
22145;DHT22;11238;48.730;11.566;2023-02-18T08:41:22;11.80;99.90
22145;DHT22;11238;48.730;11.566;2023-02-18T08:44:07;11.90;99.90
22145;DHT22;11238;48.730;11.566;2023-02-18T08:46:33;11.90;99.90
22145;DHT22;11238;48.730;11.566;2023-02-18T08:48:58;11.90;99.90
22145;DHT22;11238;48.730;11.566;2023-02-18T08:51:24;12.00;99.90
22145;DHT22;11238;48.730;11.566;2023-02-18T08:53:50;12.00;99.90
22145;DHT22;11238;48.730;11.566;2023-02-18T08:56:18;12.20;99.90
22145;DHT22;11238;48.730;11.566;2023-02-18T08:58:44;12.20;99.90
22145;DHT22;11238;48.730;11.566;2023-02-18T09:01:12;12.20;99.90
22145;DHT22;11238;48.730;11.566;2023-02-18T09:03:37;12.30;99.90
22145;DHT22;11238;48.730;11.566;2023-02-18T09:06:04;12.30;99.90
22145;DHT22;11238;48.730;11.566;2023-02-18T09:08:29;12.40;99.90
22145;DHT22;11238;48.730;11.566;2023-02-18T09:10:57;12.50;99.90
22145;DHT22;11238;48.730;11.566;2023-02-18T09:13:24;12.60;99.90
22145;DHT22;11238;48.730;11.566;2023-02-18T09:16:07;12.60;99.90
22145;DHT22;11238;48.730;11.566;2023-02-18T09:18:35;12.50;99.90
22145;DHT22;11238;48.730;11.566;2023-02-18T09:21:03;12.60;99.90
22145;DHT22;11238;48.730;11.566;2023-02-18T09:23:31;12.60;99.90
22145;DHT22;11238;48.730;11.566;2023-02-18T09:26:04;12.60;99.90
22145;DHT22;11238;48.730;11.566;2023-02-18T09:28:30;12.60;99.90
22145;DHT22;11238;48.730;11.566;2023-02-18T09:30:55;12.60;99.90
22145;DHT22;11238;48.730;11.566;2023-02-18T09:33:21;12.60;99.90
22145;DHT22;11238;48.730;11.566;2023-02-18T09:35:47;12.60;99.90
22145;DHT22;11238;48.730;11.566;2023-02-18T09:38:16;12.60;99.90
22145;DHT22;11238;48.730;11.566;2023-02-18T09:40:49;12.60;99.90
22145;DHT22;11238;48.730;11.566;2023-02-18T09:43:23;12.60;99.90
22145;DHT22;11238;48.730;11.566;2023-02-18T09:45:51;12.60;99.90
22145;DHT22;11238;48.730;11.566;2023-02-18T09:48:17;12.60;99.90
22145;DHT22;11238;48.730;11.566;2023-02-18T09:50:48;12.60;99.90
22145;DHT22;11238;48.730;11.566;2023-02-18T09:53:17;12.50;99.90
22145;DHT22;11238;48.730;11.566;2023-02-18T09:55:44;12.50;99.90
22145;DHT22;11238;48.730;11.566;2023-02-18T09:58:22;12.60;99.90
22145;DHT22;11238;48.730;11.566;2023-02-18T10:03:49;12.50;99.90
22145;DHT22;11238;48.730;11.566;2023-02-18T10:06:21;12.50;99.90
22145;DHT22;11238;48.730;11.566;2023-02-18T10:08:50;12.50;99.90
22145;DHT22;11238;48.730;11.566;2023-02-18T10:11:27;12.50;99.90
22145;DHT22;11238;48.730;11.566;2023-02-18T10:13:57;12.50;99.90
22145;DHT22;11238;48.730;11.566;2023-02-18T10:16:26;12.50;99.90
22145;DHT22;11238;48.730;11.566;2023-02-18T10:18:58;12.60;99.90
22145;DHT22;11238;48.730;11.566;2023-02-18T10:21:28;12.60;99.90
22145;DHT22;11238;48.730;11.566;2023-02-18T10:24:01;12.50;99.90
22145;DHT22;11238;48.730;11.566;2023-02-18T10:26:30;12.60;99.90
22145;DHT22;11238;48.730;11.566;2023-02-18T10:28:57;12.50;99.90
22145;DHT22;11238;48.730;11.566;2023-02-18T10:31:36;12.60;99.90
22145;DHT22;11238;48.730;11.566;2023-02-18T10:34:12;12.60;99.90
22145;DHT22;11238;48.730;11.566;2023-02-18T10:36:46;12.60;99.90
22145;DHT22;11238;48.730;11.566;2023-02-18T10:39:33;12.60;99.90
22145;DHT22;11238;48.730;11.566;2023-02-18T10:50:30;12.60;99.90
22145;DHT22;11238;48.730;11.566;2023-02-18T10:53:07;12.50;99.90
22145;DHT22;11238;48.730;11.566;2023-02-18T10:55:44;12.60;99.90
22145;DHT22;11238;48.730;11.566;2023-02-18T11:00:55;12.60;99.90
22145;DHT22;11238;48.730;11.566;2023-02-18T11:03:23;12.70;99.90
22145;DHT22;11238;48.730;11.566;2023-02-18T11:05:52;12.70;99.90
22145;DHT22;11238;48.730;11.566;2023-02-18T11:08:27;12.70;99.90
22145;DHT22;11238;48.730;11.566;2023-02-18T11:10:55;12.70;99.90
22145;DHT22;11238;48.730;11.566;2023-02-18T11:13:27;12.80;99.90
22145;DHT22;11238;48.730;11.566;2023-02-18T11:15:59;12.80;99.90
22145;DHT22;11238;48.730;11.566;2023-02-18T11:18:29;12.90;99.90
22145;DHT22;11238;48.730;11.566;2023-02-18T11:20:59;13.10;99.90
22145;DHT22;11238;48.730;11.566;2023-02-18T11:23:26;13.20;99.90
22145;DHT22;11238;48.730;11.566;2023-02-18T11:29:29;13.20;99.90
22145;DHT22;11238;48.730;11.566;2023-02-18T11:31:56;13.20;99.90
22145;DHT22;11238;48.730;11.566;2023-02-18T11:34:26;13.20;99.90
22145;DHT22;11238;48.730;11.566;2023-02-18T11:36:54;13.20;99.90
22145;DHT22;11238;48.730;11.566;2023-02-18T11:39:21;13.20;99.90
22145;DHT22;11238;48.730;11.566;2023-02-18T11:42:06;13.20;99.90
22145;DHT22;11238;48.730;11.566;2023-02-18T11:44:37;13.20;99.90
22145;DHT22;11238;48.730;11.566;2023-02-18T11:49:41;13.10;99.90
22145;DHT22;11238;48.730;11.566;2023-02-18T11:52:21;13.10;99.90
22145;DHT22;11238;48.730;11.566;2023-02-18T11:55:16;13.20;99.90
22145;DHT22;11238;48.730;11.566;2023-02-18T11:57:47;13.10;99.90
22145;DHT22;11238;48.730;11.566;2023-02-18T12:00:20;13.10;99.90
22145;DHT22;11238;48.730;11.566;2023-02-18T12:02:48;13.20;99.90
22145;DHT22;11238;48.730;11.566;2023-02-18T12:05:25;13.20;99.90
22145;DHT22;11238;48.730;11.566;2023-02-18T12:13:05;13.20;99.90
22145;DHT22;11238;48.730;11.566;2023-02-18T12:15:44;13.20;99.90
22145;DHT22;11238;48.730;11.566;2023-02-18T12:18:42;13.20;99.90
22145;DHT22;11238;48.730;11.566;2023-02-18T12:26:35;13.40;99.90
22145;DHT22;11238;48.730;11.566;2023-02-18T12:40:47;13.50;99.90
22145;DHT22;11238;48.730;11.566;2023-02-18T12:46:26;13.60;99.90
22145;DHT22;11238;48.730;11.566;2023-02-18T13:05:31;13.40;99.90
22145;DHT22;11238;48.730;11.566;2023-02-18T13:13:25;13.50;99.90
22145;DHT22;11238;48.730;11.566;2023-02-18T13:15:59;13.50;99.90
22145;DHT22;11238;48.730;11.566;2023-02-18T13:18:42;13.50;99.90
22145;DHT22;11238;48.730;11.566;2023-02-18T13:21:12;13.50;99.90
22145;DHT22;11238;48.730;11.566;2023-02-18T13:23:47;13.40;99.90
22145;DHT22;11238;48.730;11.566;2023-02-18T13:26:15;13.40;99.90
22145;DHT22;11238;48.730;11.566;2023-02-18T13:34:25;13.40;99.90
22145;DHT22;11238;48.730;11.566;2023-02-18T13:37:03;13.40;99.90
22145;DHT22;11238;48.730;11.566;2023-02-18T13:39:30;13.40;99.90
22145;DHT22;11238;48.730;11.566;2023-02-18T13:47:42;13.40;99.90
22145;DHT22;11238;48.730;11.566;2023-02-18T13:50:39;13.50;99.90
22145;DHT22;11238;48.730;11.566;2023-02-18T13:55:51;13.70;96.10
22145;DHT22;11238;48.730;11.566;2023-02-18T14:09:59;13.50;96.30
22145;DHT22;11238;48.730;11.566;2023-02-18T14:12:34;13.70;95.60
22145;DHT22;11238;48.730;11.566;2023-02-18T14:18:20;13.80;95.70
22145;DHT22;11238;48.730;11.566;2023-02-18T14:20:48;13.80;96.00
22145;DHT22;11238;48.730;11.566;2023-02-18T14:25:51;13.80;96.00
22145;DHT22;11238;48.730;11.566;2023-02-18T14:37:11;13.60;96.30
22145;DHT22;11238;48.730;11.566;2023-02-18T14:40:05;13.40;96.90
22145;DHT22;11238;48.730;11.566;2023-02-18T14:48:49;13.20;96.30
22145;DHT22;11238;48.730;11.566;2023-02-18T14:51:27;13.20;96.80
22145;DHT22;11238;48.730;11.566;2023-02-18T14:53:53;13.20;96.80
22145;DHT22;11238;48.730;11.566;2023-02-18T14:56:21;13.20;96.80
22145;DHT22;11238;48.730;11.566;2023-02-18T14:58:59;13.20;96.10
22145;DHT22;11238;48.730;11.566;2023-02-18T15:01:30;13.20;96.40
22145;DHT22;11238;48.730;11.566;2023-02-18T15:03:56;13.20;97.10
22145;DHT22;11238;48.730;11.566;2023-02-18T15:06:32;13.10;96.90
22145;DHT22;11238;48.730;11.566;2023-02-18T15:09:00;13.10;97.00
22145;DHT22;11238;48.730;11.566;2023-02-18T15:11:42;13.10;96.70
22145;DHT22;11238;48.730;11.566;2023-02-18T15:14:28;13.10;97.10
22145;DHT22;11238;48.730;11.566;2023-02-18T15:16:55;13.10;97.10
22145;DHT22;11238;48.730;11.566;2023-02-18T15:19:26;13.00;97.60
22145;DHT22;11238;48.730;11.566;2023-02-18T15:21:54;13.00;97.60
22145;DHT22;11238;48.730;11.566;2023-02-18T15:27:00;13.00;97.50
22145;DHT22;11238;48.730;11.566;2023-02-18T15:30:30;12.90;97.70
22145;DHT22;11238;48.730;11.566;2023-02-18T15:32:38;12.90;97.60
22145;DHT22;11238;48.730;11.566;2023-02-18T15:35:16;12.80;98.10
22145;DHT22;11238;48.730;11.566;2023-02-18T15:37:46;12.80;98.30
22145;DHT22;11238;48.730;11.566;2023-02-18T15:40:16;12.80;97.70
22145;DHT22;11238;48.730;11.566;2023-02-18T15:42:46;12.80;97.90
22145;DHT22;11238;48.730;11.566;2023-02-18T15:45:22;12.80;97.50
22145;DHT22;11238;48.730;11.566;2023-02-18T15:47:53;12.70;97.80
22145;DHT22;11238;48.730;11.566;2023-02-18T15:50:34;12.70;97.80
22145;DHT22;11238;48.730;11.566;2023-02-18T15:53:14;12.70;97.90
22145;DHT22;11238;48.730;11.566;2023-02-18T15:55:42;12.60;98.00
22145;DHT22;11238;48.730;11.566;2023-02-18T15:58:36;12.60;98.00
22145;DHT22;11238;48.730;11.566;2023-02-18T16:01:05;12.60;98.00
22145;DHT22;11238;48.730;11.566;2023-02-18T16:06:15;12.50;98.50
22145;DHT22;11238;48.730;11.566;2023-02-18T16:08:55;12.50;98.30
22145;DHT22;11238;48.730;11.566;2023-02-18T16:11:25;12.50;98.60
22145;DHT22;11238;48.730;11.566;2023-02-18T16:13:53;12.50;98.30
22145;DHT22;11238;48.730;11.566;2023-02-18T16:16:31;12.40;98.50
22145;DHT22;11238;48.730;11.566;2023-02-18T16:19:23;12.40;98.50
22145;DHT22;11238;48.730;11.566;2023-02-18T16:21:50;12.50;98.30
22145;DHT22;11238;48.730;11.566;2023-02-18T16:24:27;12.40;98.50
22145;DHT22;11238;48.730;11.566;2023-02-18T16:26:58;12.30;99.00
22145;DHT22;11238;48.730;11.566;2023-02-18T16:29:38;12.40;98.60
22145;DHT22;11238;48.730;11.566;2023-02-18T16:32:04;12.30;98.70
22145;DHT22;11238;48.730;11.566;2023-02-18T16:34:30;12.20;99.00
22145;DHT22;11238;48.730;11.566;2023-02-18T16:36:56;12.20;98.90
22145;DHT22;11238;48.730;11.566;2023-02-18T16:39:40;12.20;99.10
22145;DHT22;11238;48.730;11.566;2023-02-18T16:42:10;12.20;99.40
22145;DHT22;11238;48.730;11.566;2023-02-18T16:44:37;12.20;99.30
22145;DHT22;11238;48.730;11.566;2023-02-18T16:47:06;12.10;99.60
22145;DHT22;11238;48.730;11.566;2023-02-18T16:49:33;12.10;99.60
22145;DHT22;11238;48.730;11.566;2023-02-18T16:52:01;12.10;99.70
22145;DHT22;11238;48.730;11.566;2023-02-18T16:54:30;12.10;99.50
22145;DHT22;11238;48.730;11.566;2023-02-18T16:56:55;12.10;99.50
22145;DHT22;11238;48.730;11.566;2023-02-18T16:59:21;12.10;99.30
22145;DHT22;11238;48.730;11.566;2023-02-18T17:01:46;12.20;99.30
22145;DHT22;11238;48.730;11.566;2023-02-18T17:04:14;12.20;99.70
22145;DHT22;11238;48.730;11.566;2023-02-18T17:06:42;12.20;99.30
22145;DHT22;11238;48.730;11.566;2023-02-18T17:09:18;12.20;99.30
22145;DHT22;11238;48.730;11.566;2023-02-18T17:11:50;12.10;99.70
22145;DHT22;11238;48.730;11.566;2023-02-18T17:14:18;12.20;99.50
22145;DHT22;11238;48.730;11.566;2023-02-18T17:16:48;12.20;99.40
22145;DHT22;11238;48.730;11.566;2023-02-18T17:19:18;12.20;99.20
22145;DHT22;11238;48.730;11.566;2023-02-18T17:21:43;12.20;99.20
22145;DHT22;11238;48.730;11.566;2023-02-18T17:24:14;12.20;99.30
22145;DHT22;11238;48.730;11.566;2023-02-18T17:26:41;12.10;99.80
22145;DHT22;11238;48.730;11.566;2023-02-18T17:29:07;12.10;99.40
22145;DHT22;11238;48.730;11.566;2023-02-18T17:31:41;12.10;99.80
22145;DHT22;11238;48.730;11.566;2023-02-18T17:34:29;12.10;99.70
22145;DHT22;11238;48.730;11.566;2023-02-18T17:36:57;12.10;99.80
22145;DHT22;11238;48.730;11.566;2023-02-18T17:39:22;12.10;99.60
22145;DHT22;11238;48.730;11.566;2023-02-18T17:41:51;12.10;99.90
22145;DHT22;11238;48.730;11.566;2023-02-18T17:44:19;12.10;99.60
22145;DHT22;11238;48.730;11.566;2023-02-18T17:46:45;12.10;99.90
22145;DHT22;11238;48.730;11.566;2023-02-18T17:49:11;12.10;99.70
22145;DHT22;11238;48.730;11.566;2023-02-18T17:51:38;12.10;99.40
22145;DHT22;11238;48.730;11.566;2023-02-18T17:54:18;12.10;99.60
22145;DHT22;11238;48.730;11.566;2023-02-18T17:56:44;12.00;99.90
22145;DHT22;11238;48.730;11.566;2023-02-18T17:59:10;12.10;99.60
22145;DHT22;11238;48.730;11.566;2023-02-18T18:01:36;12.00;99.90
22145;DHT22;11238;48.730;11.566;2023-02-18T18:04:02;12.00;99.70
22145;DHT22;11238;48.730;11.566;2023-02-18T18:06:28;11.90;99.90
22145;DHT22;11238;48.730;11.566;2023-02-18T18:08:54;11.90;99.90